Weather at Sostro Private Airstrip

Public forecast

Using degrees Celsius for public forecast. Weather courtesy of forecast.io.

Closest aviation weather report (METAR) to Sostro Private Airstrip

Closest report is Ljubljana Jože Pučnik Airport, 12.7 nm (23.5 km) NNW.

2024/05/21 12:30 (retrieved 23 minutes ago)

LJLJ 211230Z 33003KT 220V010 9999 -SHRA FEW005 FEW024TCU BKN030 17/16 Q1006 NOSIG

Closest aviation forecast (TAF) to Sostro Private Airstrip

Closest forecast is Ljubljana Jože Pučnik Airport, 12.7 nm (23.5 km) NNW.

2024/05/21 12:06 (retrieved 47 minutes ago)

TAF LJLJ 211100Z 2112/2212 VRB02KT 9999 FEW007 BKN045 TEMPO 2112/2117 SHRA BKN025TCU TEMPO 2112/2116 5000 TSRA BKN025CB PROB30 TEMPO 2117/2208 -SHRA SCT015TCU BKN017 TEMPO 2208/2212 SHRA BKN025TCU TEMPO 2209/2212 5000 TSRA BKN025CB